createdAt,value
2024-03-24T00:00:45.428Z,86.1891
2024-03-24T00:01:50.321Z,86.6697
2024-03-24T00:02:55.106Z,86.0792
2024-03-24T00:04:00.033Z,86.2303
2024-03-24T00:05:04.884Z,84.8142
2024-03-24T00:06:09.666Z,85.9007
2024-03-24T00:07:14.530Z,85.5146
2024-03-24T00:08:19.309Z,85.2354
2024-03-24T00:09:24.205Z,84.9073
2024-03-24T00:10:29.246Z,86.2440
2024-03-24T00:11:33.999Z,85.0126
2024-03-24T00:12:38.778Z,84.8066
2024-03-24T00:13:43.656Z,84.9241
2024-03-24T00:14:48.511Z,85.3773
2024-03-24T00:15:53.254Z,84.8661
2024-03-24T00:16:58.049Z,85.4047
2024-03-24T00:18:02.862Z,84.4999
2024-03-24T00:19:07.748Z,84.4755
2024-03-24T00:20:12.513Z,84.1871
2024-03-24T00:21:17.444Z,84.3473
2024-03-24T00:22:22.391Z,84.2283
2024-03-24T00:23:27.161Z,83.7293
2024-03-24T00:24:31.931Z,83.7537
2024-03-24T00:25:36.745Z,83.4653
2024-03-24T00:26:41.523Z,82.9831
2024-03-24T00:27:46.359Z,82.6322
2024-03-24T00:28:51.197Z,84.4541
2024-03-24T00:29:55.989Z,84.2969
2024-03-24T00:31:00.840Z,85.0523
2024-03-24T00:32:05.738Z,83.7751
2024-03-24T00:33:10.703Z,83.7613
2024-03-24T00:34:15.667Z,84.0085
2024-03-24T00:35:20.416Z,83.5599
2024-03-24T00:36:25.277Z,83.4516
2024-03-24T00:37:30.224Z,83.7430
2024-03-24T00:38:35.206Z,84.2939
2024-03-24T00:39:42.501Z,83.9094
2024-03-24T00:40:50.702Z,83.4012
2024-03-24T00:41:55.515Z,84.5579
2024-03-24T00:43:00.480Z,84.4266
2024-03-24T00:44:05.391Z,84.7181
2024-03-24T00:45:10.167Z,84.1276
2024-03-24T00:46:15.027Z,84.7700
2024-03-24T00:47:19.974Z,84.9424
2024-03-24T00:48:24.736Z,85.5940
2024-03-24T00:49:29.621Z,85.6077
2024-03-24T00:50:34.550Z,85.4017
2024-03-24T00:51:39.309Z,84.4541
2024-03-24T00:52:44.133Z,84.4312
2024-03-24T00:53:48.922Z,84.2283
2024-03-24T00:54:53.740Z,84.7974
2024-03-24T00:55:58.494Z,85.2003
2024-03-24T00:57:03.331Z,84.1505
2024-03-24T00:58:08.136Z,84.7013
2024-03-24T00:59:12.933Z,85.3880
2024-03-24T01:00:17.734Z,85.9083
2024-03-24T01:01:22.512Z,85.8946
2024-03-24T01:02:27.320Z,86.2989
2024-03-24T01:03:32.107Z,86.1524
2024-03-24T01:04:36.858Z,85.8259
2024-03-24T01:05:41.736Z,86.3890
2024-03-24T01:06:46.675Z,86.2425
2024-03-24T01:07:51.460Z,86.5232
2024-03-24T01:08:56.304Z,86.6636
2024-03-24T01:10:01.076Z,86.5736
2024-03-24T01:11:05.896Z,86.5263
2024-03-24T01:12:10.855Z,86.5141
2024-03-24T01:13:15.610Z,86.8238
2024-03-24T01:14:20.464Z,87.1412
2024-03-24T01:15:25.278Z,87.1168
2024-03-24T01:16:30.053Z,87.8004
2024-03-24T01:17:34.847Z,87.7134
2024-03-24T01:18:39.668Z,87.7852
2024-03-24T01:19:44.463Z,87.1763
2024-03-24T01:20:49.317Z,87.5746
2024-03-24T01:21:54.238Z,87.4968
2024-03-24T01:22:58.978Z,87.9240
2024-03-24T01:24:03.854Z,88.0797
2024-03-24T01:25:08.822Z,87.8950
2024-03-24T01:26:13.557Z,87.8401
2024-03-24T01:27:18.382Z,88.1025
2024-03-24T01:28:23.341Z,88.4321
2024-03-24T01:29:28.256Z,88.1758
2024-03-24T01:30:33.029Z,88.3665
2024-03-24T01:31:37.894Z,88.5771
2024-03-24T01:32:42.698Z,88.6274
2024-03-24T01:33:47.499Z,88.1254
2024-03-24T01:34:52.292Z,88.2200
2024-03-24T01:35:57.108Z,88.5634
2024-03-24T01:37:02.081Z,88.6610
2024-03-24T01:38:07.028Z,89.1325
2024-03-24T01:39:11.961Z,89.4835
2024-03-24T01:40:16.735Z,89.4484
2024-03-24T01:41:21.605Z,89.8833
2024-03-24T01:42:26.507Z,89.9290
2024-03-24T01:43:31.305Z,89.7871
2024-03-24T01:44:36.067Z,90.3273
2024-03-24T01:45:40.878Z,89.9199
2024-03-24T01:46:45.744Z,89.8131
2024-03-24T01:47:50.520Z,90.0664
2024-03-24T01:48:55.335Z,90.4768
2024-03-24T01:50:00.232Z,90.6371
2024-03-24T01:51:04.947Z,90.7607
2024-03-24T01:52:09.922Z,90.9300
2024-03-24T01:53:14.853Z,91.2566
2024-03-24T01:54:19.637Z,91.1589
2024-03-24T01:55:24.472Z,91.2612
2024-03-24T01:56:29.283Z,91.5068
2024-03-24T01:57:34.105Z,91.4946
2024-03-24T01:58:38.886Z,91.7739
2024-03-24T01:59:43.668Z,92.0241
2024-03-24T02:00:48.590Z,92.0806
2024-03-24T02:01:53.586Z,91.9203
2024-03-24T02:02:58.520Z,91.8792
2024-03-24T02:04:03.465Z,91.8227
2024-03-24T02:05:08.416Z,91.7601
2024-03-24T02:06:13.199Z,92.0027
2024-03-24T02:07:18.009Z,92.4010
2024-03-24T02:08:22.993Z,92.4147
2024-03-24T02:09:27.958Z,92.3262
2024-03-24T02:10:32.692Z,92.4498
2024-03-24T02:11:37.526Z,92.7657
2024-03-24T02:12:42.499Z,92.9503
2024-03-24T02:13:47.476Z,93.1960
2024-03-24T02:14:52.404Z,93.1609
2024-03-24T02:15:57.201Z,93.1105
2024-03-24T02:17:02.006Z,93.0724
2024-03-24T02:18:07.010Z,93.1411
2024-03-24T02:19:11.827Z,93.3440
2024-03-24T02:20:16.646Z,93.3883
2024-03-24T02:21:21.526Z,93.4981
2024-03-24T02:22:26.288Z,93.5042
2024-03-24T02:23:31.137Z,93.5638
2024-03-24T02:24:36.087Z,93.7133
2024-03-24T02:25:40.874Z,93.7911
2024-03-24T02:26:45.710Z,93.9605
2024-03-24T02:27:50.677Z,94.0581
2024-03-24T02:28:55.548Z,94.0429
2024-03-24T02:30:00.313Z,94.1253
2024-03-24T02:31:05.204Z,94.1772
2024-03-24T02:32:10.114Z,94.2260
2024-03-24T02:33:14.920Z,94.2534
2024-03-24T02:34:19.788Z,94.3862
2024-03-24T02:35:24.674Z,94.5388
2024-03-24T02:36:29.447Z,94.6029
2024-03-24T02:37:34.376Z,94.6517
2024-03-24T02:38:39.124Z,94.6838
2024-03-24T02:39:43.939Z,94.8394
2024-03-24T02:40:49.216Z,94.8806
2024-03-24T02:41:54.053Z,94.9584
2024-03-24T02:42:58.861Z,95.0240
2024-03-24T02:44:03.795Z,95.0820
2024-03-24T02:45:08.755Z,95.1522
2024-03-24T02:46:13.780Z,95.1690
2024-03-24T02:47:18.534Z,95.1980
2024-03-24T02:48:23.296Z,95.2255
2024-03-24T02:49:28.250Z,95.3292
2024-03-24T02:50:33.039Z,95.3994
2024-03-24T02:51:37.855Z,95.4223
2024-03-24T02:52:42.823Z,95.3811
2024-03-24T02:53:47.787Z,95.4360
2024-03-24T02:54:52.719Z,95.4177
2024-03-24T02:55:57.507Z,95.3613
2024-03-24T02:57:02.392Z,95.3201
2024-03-24T02:58:07.360Z,95.2941
2024-03-24T02:59:12.093Z,95.3704
2024-03-24T03:00:16.887Z,95.2789
2024-03-24T03:01:21.857Z,95.2483
2024-03-24T03:02:26.604Z,95.3124
2024-03-24T03:03:31.450Z,95.3933
2024-03-24T03:04:36.215Z,95.3933
2024-03-24T03:05:41.053Z,95.3658
2024-03-24T03:06:45.846Z,95.3384
2024-03-24T03:07:50.659Z,95.2941
2024-03-24T03:08:55.624Z,95.1919
2024-03-24T03:10:00.576Z,95.2209
2024-03-24T03:11:05.502Z,95.2422
2024-03-24T03:12:10.269Z,95.2926
2024-03-24T03:13:15.177Z,95.3582
2024-03-24T03:14:20.075Z,95.4162
2024-03-24T03:15:24.846Z,95.4345
2024-03-24T03:16:29.700Z,95.2834
2024-03-24T03:17:34.644Z,95.0912
2024-03-24T03:18:39.447Z,94.8806
2024-03-24T03:19:44.255Z,94.8913
2024-03-24T03:20:49.200Z,94.7997
2024-03-24T03:21:54.003Z,94.8226
2024-03-24T03:22:58.822Z,94.8272
2024-03-24T03:24:03.607Z,94.8638
2024-03-24T03:25:08.463Z,94.8669
2024-03-24T03:26:13.384Z,94.8135
2024-03-24T03:27:18.323Z,94.6578
2024-03-24T03:28:23.073Z,94.5891
2024-03-24T03:29:27.946Z,94.5830
2024-03-24T03:30:32.869Z,94.6029
2024-03-24T03:31:37.654Z,94.7494
2024-03-24T03:32:42.509Z,94.8913
2024-03-24T03:33:47.445Z,94.9462
2024-03-24T03:34:52.193Z,94.9767
2024-03-24T03:35:57.084Z,94.9630
2024-03-24T03:37:02.003Z,95.1476
2024-03-24T03:38:06.771Z,95.2209
2024-03-24T03:39:11.614Z,95.3979
2024-03-24T03:40:16.557Z,95.5367
2024-03-24T03:41:21.304Z,95.6283
2024-03-24T03:42:26.192Z,95.7748
2024-03-24T03:43:31.114Z,95.7412
2024-03-24T03:44:35.881Z,95.7549
2024-03-24T03:45:40.876Z,95.7824
2024-03-24T03:46:45.689Z,95.7824
2024-03-24T03:47:50.457Z,95.8709
2024-03-24T03:48:55.627Z,95.9060
2024-03-24T03:50:00.591Z,95.9747
2024-03-24T03:51:05.541Z,96.0220
2024-03-24T03:52:10.545Z,96.0494
2024-03-24T03:53:15.465Z,96.1303
2024-03-24T03:54:20.393Z,96.2219
2024-03-24T03:55:25.187Z,96.2493
2024-03-24T03:56:30.075Z,96.3043
2024-03-24T03:57:34.887Z,96.3500
2024-03-24T03:58:39.679Z,96.3867
2024-03-24T03:59:44.555Z,96.4065
2024-03-24T04:00:49.503Z,96.4233
2024-03-24T04:01:54.306Z,96.4416
2024-03-24T04:02:59.137Z,96.4096
2024-03-24T04:04:04.007Z,96.3882
2024-03-24T04:05:08.813Z,96.3775
2024-03-24T04:06:13.685Z,96.3180
2024-03-24T04:07:18.609Z,96.3058
2024-03-24T04:08:23.451Z,96.2859
2024-03-24T04:09:28.254Z,96.1868
2024-03-24T04:10:33.148Z,96.1913
2024-03-24T04:11:37.977Z,96.1822
2024-03-24T04:12:42.708Z,96.2005
2024-03-24T04:13:47.547Z,96.2356
2024-03-24T04:14:52.454Z,96.2951
2024-03-24T04:15:57.372Z,96.2600
2024-03-24T04:17:02.294Z,96.2081
2024-03-24T04:18:07.079Z,96.2005
2024-03-24T04:19:11.941Z,96.1639
2024-03-24T04:20:16.854Z,96.1257
2024-03-24T04:21:21.677Z,96.0998
2024-03-24T04:22:26.523Z,96.0266
2024-03-24T04:23:31.403Z,95.9213
2024-03-24T04:24:36.199Z,95.8648
2024-03-24T04:25:41.000Z,95.8434
2024-03-24T04:26:45.969Z,95.7687
2024-03-24T04:27:50.764Z,95.7336
2024-03-24T04:28:55.628Z,95.7000
2024-03-24T04:30:00.510Z,95.6817
2024-03-24T04:31:05.376Z,95.7015
2024-03-24T04:32:10.151Z,95.7275
2024-03-24T04:33:15.084Z,95.6832
2024-03-24T04:34:19.867Z,95.5642
2024-03-24T04:35:24.780Z,95.5581
2024-03-24T04:36:29.627Z,95.5505
2024-03-24T04:37:34.405Z,95.5734
2024-03-24T04:38:39.296Z,95.5779
2024-03-24T04:39:44.218Z,95.6649
2024-03-24T04:40:49.226Z,95.7275
2024-03-24T04:41:54.187Z,95.7320
2024-03-24T04:42:58.966Z,95.7427
2024-03-24T04:44:03.778Z,95.7702
2024-03-24T04:45:08.568Z,95.7748
2024-03-24T04:46:13.396Z,95.7824
2024-03-24T04:47:18.344Z,95.8190
2024-03-24T04:48:23.314Z,95.8373
2024-03-24T04:49:28.269Z,95.8709
2024-03-24T04:50:33.051Z,95.9472
2024-03-24T04:51:37.864Z,96.0204
2024-03-24T04:52:45.459Z,96.0998
2024-03-24T04:53:50.645Z,96.1913
2024-03-24T04:54:55.696Z,96.2585
2024-03-24T04:56:00.587Z,96.2829
2024-03-24T04:57:05.537Z,96.3409
2024-03-24T04:58:10.317Z,96.3653
2024-03-24T04:59:15.141Z,96.3928
2024-03-24T05:00:20.131Z,96.4416
2024-03-24T05:01:25.066Z,96.4782
2024-03-24T05:02:30.055Z,96.4614
2024-03-24T05:03:35.004Z,96.4294
2024-03-24T05:04:39.944Z,96.4248
2024-03-24T05:05:44.845Z,96.4065
2024-03-24T05:06:49.659Z,96.4096
2024-03-24T05:07:54.505Z,96.3684
2024-03-24T05:08:59.438Z,96.4141
2024-03-24T05:10:04.229Z,96.5194
2024-03-24T05:11:09.076Z,96.5240
2024-03-24T05:12:13.998Z,96.5850
2024-03-24T05:13:18.782Z,96.6567
2024-03-24T05:14:23.642Z,96.6934
2024-03-24T05:15:28.513Z,96.7132
2024-03-24T05:16:33.290Z,96.7865
2024-03-24T05:17:38.214Z,96.8277
2024-03-24T05:18:43.033Z,96.8231
2024-03-24T05:19:47.828Z,96.8277
2024-03-24T05:20:52.766Z,96.8399
2024-03-24T05:21:57.663Z,96.8322
2024-03-24T05:23:02.495Z,96.8582
2024-03-24T05:24:07.250Z,96.8994
2024-03-24T05:25:12.064Z,96.8948
2024-03-24T05:26:16.928Z,96.9100
2024-03-24T05:27:21.889Z,96.9329
2024-03-24T05:28:27.093Z,97.0001
2024-03-24T05:29:35.233Z,97.0459
2024-03-24T05:30:40.025Z,97.0321
2024-03-24T05:31:44.964Z,97.0138
2024-03-24T05:32:49.886Z,97.0642
2024-03-24T05:33:54.859Z,97.0367
2024-03-24T05:34:59.817Z,97.0336
2024-03-24T05:36:04.597Z,97.0245
2024-03-24T05:37:09.402Z,97.0291
2024-03-24T05:38:14.211Z,97.0504
2024-03-24T05:39:18.999Z,97.0291
2024-03-24T05:40:23.990Z,96.9924
2024-03-24T05:41:28.935Z,97.0199
2024-03-24T05:42:33.708Z,97.0184
2024-03-24T05:43:38.510Z,97.0199
2024-03-24T05:44:43.318Z,97.0336
2024-03-24T05:45:48.108Z,96.9787
2024-03-24T05:46:52.909Z,96.9955
2024-03-24T05:47:57.722Z,97.0336
2024-03-24T05:49:02.520Z,96.9909
2024-03-24T05:50:07.325Z,97.0245
2024-03-24T05:51:12.279Z,97.0520
2024-03-24T05:52:19.027Z,97.0291
2024-03-24T05:53:24.978Z,97.0504
2024-03-24T05:54:29.732Z,97.0596
2024-03-24T05:55:34.636Z,97.0474
2024-03-24T05:56:39.413Z,96.9924
2024-03-24T05:57:44.303Z,97.0108
2024-03-24T05:58:49.157Z,97.0001
2024-03-24T05:59:53.942Z,96.9650
2024-03-24T06:00:58.823Z,96.9497
2024-03-24T06:02:03.785Z,96.8902
2024-03-24T06:03:08.546Z,96.8689
2024-03-24T06:04:13.449Z,96.8185
2024-03-24T06:05:18.306Z,96.7910
2024-03-24T06:06:23.087Z,96.7117
2024-03-24T06:07:27.955Z,96.6354
2024-03-24T06:08:32.870Z,96.5896
2024-03-24T06:09:37.653Z,96.4431
2024-03-24T06:10:42.548Z,96.2859
2024-03-24T06:11:47.419Z,96.0769
2024-03-24T06:12:52.187Z,95.8434
2024-03-24T06:13:57.084Z,95.6786
2024-03-24T06:15:01.903Z,95.5413
2024-03-24T06:16:06.670Z,95.3399
2024-03-24T06:17:11.456Z,95.0286
2024-03-24T06:18:16.307Z,94.7173
2024-03-24T06:19:21.110Z,94.5556
2024-03-24T06:20:25.905Z,94.5434
2024-03-24T06:21:30.671Z,94.5983
2024-03-24T06:22:35.486Z,94.5281
2024-03-24T06:23:40.439Z,94.5739
2024-03-24T06:24:45.351Z,94.4610
2024-03-24T06:25:50.139Z,94.2046
2024-03-24T06:26:55.003Z,94.0246
2024-03-24T06:27:59.926Z,93.6034
2024-03-24T06:29:04.745Z,93.0373
2024-03-24T06:30:09.565Z,92.7245
2024-03-24T06:31:14.463Z,92.4681
2024-03-24T06:32:19.267Z,92.4544
2024-03-24T06:33:24.144Z,91.9753
2024-03-24T06:34:29.083Z,91.9936
2024-03-24T06:35:33.835Z,91.9966
2024-03-24T06:36:38.695Z,91.3420
2024-03-24T06:37:43.476Z,91.0552
2024-03-24T06:38:48.285Z,91.2383
2024-03-24T06:39:53.248Z,91.2184
2024-03-24T06:40:58.034Z,91.4031
2024-03-24T06:42:02.835Z,91.4305
2024-03-24T06:43:07.664Z,91.1421
2024-03-24T06:44:12.454Z,91.1604
2024-03-24T06:45:17.407Z,90.9087
2024-03-24T06:46:22.370Z,90.8476
2024-03-24T06:47:27.293Z,90.0710
2024-03-24T06:48:32.091Z,90.1289
2024-03-24T06:49:36.921Z,89.7581
2024-03-24T06:50:41.828Z,89.7734
2024-03-24T06:51:46.660Z,89.0684
2024-03-24T06:52:51.480Z,89.5308
2024-03-24T06:53:56.375Z,89.8146
2024-03-24T06:55:01.182Z,89.8329
2024-03-24T06:56:06.038Z,89.9016
2024-03-24T06:57:10.998Z,90.6020
2024-03-24T06:58:15.821Z,90.0191
2024-03-24T06:59:20.594Z,89.6758
2024-03-24T07:00:25.403Z,89.7231
2024-03-24T07:01:30.199Z,90.0023
2024-03-24T07:02:35.168Z,89.8314
2024-03-24T07:03:40.130Z,89.8375
2024-03-24T07:04:45.092Z,90.2403
2024-03-24T07:05:50.061Z,90.3914
2024-03-24T07:06:55.009Z,90.3395
2024-03-24T07:07:59.969Z,90.3593
2024-03-24T07:09:04.934Z,90.2724
2024-03-24T07:10:09.867Z,90.0526
2024-03-24T07:11:14.641Z,89.4530
2024-03-24T07:12:19.492Z,90.0328
2024-03-24T07:13:24.498Z,90.1854
2024-03-24T07:14:29.215Z,90.0206
2024-03-24T07:15:34.055Z,89.6819
2024-03-24T07:16:38.961Z,88.9479
2024-03-24T07:17:43.736Z,88.9403
2024-03-24T07:18:48.610Z,88.4260
2024-03-24T07:19:53.546Z,88.7373
2024-03-24T07:20:58.306Z,88.7571
2024-03-24T07:22:03.136Z,87.3503
2024-03-24T07:23:08.086Z,87.3243
2024-03-24T07:24:12.862Z,86.1280
2024-03-24T07:25:17.657Z,86.2074
2024-03-24T07:26:24.921Z,86.3767
2024-03-24T07:27:30.230Z,85.1575
2024-03-24T07:28:34.976Z,85.6565
2024-03-24T07:29:39.840Z,85.5970
2024-03-24T07:30:44.789Z,85.4841
2024-03-24T07:31:49.726Z,86.3264
2024-03-24T07:32:54.517Z,86.3539
2024-03-24T07:33:59.337Z,86.5263
2024-03-24T07:35:04.289Z,86.0868
2024-03-24T07:36:09.233Z,86.2196
2024-03-24T07:37:14.023Z,86.5858
2024-03-24T07:38:18.844Z,86.5721
2024-03-24T07:39:23.822Z,86.3661
2024-03-24T07:40:28.767Z,85.5970
2024-03-24T07:41:33.748Z,84.7517
2024-03-24T07:42:39.784Z,84.6403
2024-03-24T07:43:45.546Z,84.3580
2024-03-24T07:44:50.351Z,83.5004
2024-03-24T07:45:55.158Z,83.6622
2024-03-24T07:46:59.922Z,84.0375
2024-03-24T07:48:04.764Z,83.5645
2024-03-24T07:49:09.714Z,84.1688
2024-03-24T07:50:14.481Z,84.8798
2024-03-24T07:51:19.342Z,83.8941
2024-03-24T07:52:24.279Z,83.7247
2024-03-24T07:53:29.027Z,84.4129
2024-03-24T07:54:33.910Z,84.8386
2024-03-24T07:55:38.824Z,83.1205
2024-03-24T07:56:43.589Z,84.0589
2024-03-24T07:57:48.442Z,83.4150
2024-03-24T07:58:53.382Z,83.7629
2024-03-24T07:59:58.266Z,83.7339
2024-03-24T08:01:03.063Z,83.9414
2024-03-24T08:02:07.942Z,83.2227
2024-03-24T08:03:12.843Z,83.2639
2024-03-24T08:04:17.696Z,83.8270
2024-03-24T08:05:22.516Z,84.5823
2024-03-24T08:06:27.412Z,83.7629
2024-03-24T08:07:32.260Z,82.4109
2024-03-24T08:08:37.055Z,82.2965
2024-03-24T08:09:41.846Z,81.2528
2024-03-24T08:10:46.695Z,79.9573
2024-03-24T08:11:51.622Z,78.8266
2024-03-24T08:12:56.405Z,78.4115
2024-03-24T08:14:01.230Z,78.7823
2024-03-24T08:15:06.190Z,78.1048
2024-03-24T08:16:10.956Z,77.3449
2024-03-24T08:17:15.773Z,78.4192
2024-03-24T08:18:20.758Z,78.1735
2024-03-24T08:19:25.565Z,78.8403
2024-03-24T08:20:30.437Z,81.5244
2024-03-24T08:21:35.328Z,78.8037
2024-03-24T08:22:40.120Z,77.6547
2024-03-24T08:23:44.935Z,77.2793
2024-03-24T08:24:49.885Z,78.6526
2024-03-24T08:25:54.712Z,78.5702
2024-03-24T08:26:59.470Z,78.2742
2024-03-24T08:28:04.429Z,79.0066
2024-03-24T08:29:09.206Z,79.9069
2024-03-24T08:30:14.036Z,76.1822
2024-03-24T08:31:18.991Z,76.3500
2024-03-24T08:32:23.957Z,76.7315
2024-03-24T08:33:28.738Z,74.4045
2024-03-24T08:34:33.557Z,73.3974
2024-03-24T08:35:38.480Z,74.4961
2024-03-24T08:36:43.273Z,72.9488
2024-03-24T08:37:48.114Z,73.6019
2024-03-24T08:38:53.058Z,75.6222
2024-03-24T08:39:57.821Z,76.0769
2024-03-24T08:41:02.695Z,76.7224
2024-03-24T08:42:07.582Z,76.6217
2024-03-24T08:43:12.368Z,75.3063
2024-03-24T08:44:17.138Z,75.5810
2024-03-24T08:45:21.954Z,75.4940
2024-03-24T08:46:26.881Z,75.2468
2024-03-24T08:47:31.691Z,76.1822
2024-03-24T08:48:42.043Z,75.2209
2024-03-24T08:49:47.174Z,74.0688
2024-03-24T08:50:52.201Z,74.3633
2024-03-24T08:51:57.067Z,74.0002
2024-03-24T08:53:01.953Z,73.4569
2024-03-24T08:54:06.755Z,76.4477
2024-03-24T08:55:11.673Z,76.6674
2024-03-24T08:56:16.516Z,75.7748
2024-03-24T08:57:21.334Z,77.0291
2024-03-24T08:58:26.180Z,78.0209
2024-03-24T08:59:30.969Z,78.6130
2024-03-24T09:00:35.747Z,77.2854
2024-03-24T09:01:41.345Z,78.1353
2024-03-24T09:02:46.265Z,77.3587
2024-03-24T09:03:51.049Z,77.1527
2024-03-24T09:04:55.945Z,77.5998
2024-03-24T09:06:00.846Z,76.7590
2024-03-24T09:07:05.656Z,78.0301
2024-03-24T09:08:10.410Z,75.9487
2024-03-24T09:09:15.250Z,75.5871
2024-03-24T09:10:20.021Z,76.0754
2024-03-24T09:11:24.805Z,73.5058
2024-03-24T09:12:29.591Z,74.5769
2024-03-24T09:13:34.356Z,73.1868
2024-03-24T09:14:39.309Z,72.6909
2024-03-24T09:15:44.247Z,71.4000
2024-03-24T09:16:49.030Z,70.7317
2024-03-24T09:17:53.865Z,69.3004
2024-03-24T09:18:58.800Z,67.9820
2024-03-24T09:20:03.580Z,67.5608
2024-03-24T09:21:08.695Z,65.1759
2024-03-24T09:22:13.503Z,65.6916
2024-03-24T09:23:18.264Z,67.5196
2024-03-24T09:24:23.074Z,66.6087
2024-03-24T09:25:27.939Z,66.2058
2024-03-24T09:26:32.733Z,65.5039
2024-03-24T09:27:37.531Z,63.9292
2024-03-24T09:28:42.519Z,62.4018
2024-03-24T09:29:47.511Z,61.0910
2024-03-24T09:30:52.437Z,60.9216
2024-03-24T09:31:57.391Z,60.2045
2024-03-24T09:33:02.196Z,58.9593
2024-03-24T09:34:06.973Z,61.7319
2024-03-24T09:35:13.553Z,62.8275
2024-03-24T09:36:18.712Z,59.9161
2024-03-24T09:37:23.535Z,59.7726
2024-03-24T09:38:30.853Z,62.3514
2024-03-24T09:39:37.534Z,63.2441
2024-03-24T09:40:42.334Z,62.1820
2024-03-24T09:41:47.143Z,65.3345
2024-03-24T09:42:52.113Z,66.5751
2024-03-24T09:43:56.883Z,65.7786
2024-03-24T09:45:01.662Z,64.4053
2024-03-24T09:46:06.452Z,61.5625
2024-03-24T09:47:11.314Z,61.8280
2024-03-24T09:48:16.284Z,64.2695
2024-03-24T09:49:21.227Z,64.8188
2024-03-24T09:50:26.000Z,65.7145
2024-03-24T09:51:30.832Z,60.1022
2024-03-24T09:52:35.762Z,60.6256
2024-03-24T09:53:40.560Z,56.1883
2024-03-24T09:54:45.411Z,59.1821
2024-03-24T09:55:50.318Z,57.5525
2024-03-24T09:56:55.108Z,54.8943
2024-03-24T09:58:07.017Z,56.2585
2024-03-24T09:59:10.727Z,56.2524
2024-03-24T10:00:15.546Z,59.6902
2024-03-24T10:01:20.347Z,58.5199
2024-03-24T10:02:25.232Z,54.2443
2024-03-24T10:03:30.003Z,53.6660
2024-03-24T10:04:34.788Z,53.6171
2024-03-24T10:05:39.714Z,54.0383
2024-03-24T10:06:44.500Z,56.6323
2024-03-24T10:07:49.322Z,59.5300
2024-03-24T10:08:54.102Z,62.3697
2024-03-24T10:09:58.996Z,60.4791
2024-03-24T10:11:03.983Z,61.4160
2024-03-24T10:12:08.743Z,63.5309
2024-03-24T10:13:13.565Z,64.8463
2024-03-24T10:14:18.515Z,63.8285
2024-03-24T10:15:23.474Z,63.5050
2024-03-24T10:16:28.485Z,63.5401
2024-03-24T10:17:33.387Z,64.9195
2024-03-24T10:18:38.373Z,64.6586
2024-03-24T10:19:43.277Z,65.0248
2024-03-24T10:20:48.055Z,65.1194
2024-03-24T10:21:52.941Z,67.1794
2024-03-24T10:22:57.843Z,67.4372
2024-03-24T10:24:02.704Z,70.7469
2024-03-24T10:25:07.491Z,70.8049
2024-03-24T10:26:12.261Z,71.5572
2024-03-24T10:27:17.091Z,72.5811
2024-03-24T10:28:22.036Z,73.3883
2024-03-24T10:29:26.967Z,72.8466
2024-03-24T10:30:31.765Z,72.6787
2024-03-24T10:31:36.597Z,73.9132
2024-03-24T10:32:41.525Z,73.8628
2024-03-24T10:33:46.316Z,74.1146
2024-03-24T10:34:51.162Z,71.1177
2024-03-24T10:35:56.111Z,68.7541
2024-03-24T10:37:00.909Z,62.6474
2024-03-24T10:38:05.711Z,64.7486
2024-03-24T10:39:10.669Z,61.7823
2024-03-24T10:40:15.424Z,63.1647
2024-03-24T10:41:20.209Z,66.5064
2024-03-24T10:42:25.041Z,62.8168
2024-03-24T10:43:29.879Z,57.6867
2024-03-24T10:44:34.664Z,60.6790
2024-03-24T10:45:39.477Z,60.2213
2024-03-24T10:46:44.431Z,63.6881
2024-03-24T10:47:49.230Z,59.7498
2024-03-24T10:48:54.046Z,59.9008
2024-03-24T10:49:58.999Z,61.1002
2024-03-24T10:51:03.794Z,60.6577
2024-03-24T10:52:08.681Z,57.0092
2024-03-24T10:53:13.446Z,55.9289
2024-03-24T10:54:18.222Z,55.9411
2024-03-24T10:55:23.154Z,52.5414
2024-03-24T10:56:28.135Z,56.4675
2024-03-24T10:57:32.917Z,55.2041
2024-03-24T10:58:37.711Z,50.9071
2024-03-24T10:59:42.675Z,56.3226
2024-03-24T11:00:47.454Z,59.6445
2024-03-24T11:01:52.290Z,62.1683
2024-03-24T11:02:57.211Z,65.5406
2024-03-24T11:04:02.014Z,67.3182
2024-03-24T11:05:06.826Z,69.0150
2024-03-24T11:06:14.769Z,72.2057
2024-03-24T11:07:20.894Z,73.4554
2024-03-24T11:08:25.810Z,76.7208
2024-03-24T11:09:30.607Z,77.7325
2024-03-24T11:10:35.461Z,81.0483
2024-03-24T11:11:40.365Z,81.3443
2024-03-24T11:12:45.140Z,83.6973
2024-03-24T11:13:50.016Z,84.4450
2024-03-24T11:14:54.943Z,86.2852
2024-03-24T11:15:59.705Z,86.1112
2024-03-24T11:17:04.596Z,85.7221
2024-03-24T11:18:09.499Z,85.2552
2024-03-24T11:19:14.282Z,84.6037
2024-03-24T11:20:19.134Z,83.0976
2024-03-24T11:21:24.086Z,81.8860
2024-03-24T11:22:28.869Z,78.4100
2024-03-24T11:23:33.707Z,78.8495
2024-03-24T11:24:38.610Z,79.6506
2024-03-24T11:25:43.452Z,78.7945
2024-03-24T11:26:48.279Z,78.0575
2024-03-24T11:27:53.242Z,78.5443
2024-03-24T11:28:58.184Z,75.8389
2024-03-24T11:30:03.179Z,78.6847
2024-03-24T11:31:08.117Z,71.6121
2024-03-24T11:32:13.131Z,70.0328
2024-03-24T11:33:18.013Z,72.8252
2024-03-24T11:34:22.956Z,70.5211
2024-03-24T11:35:27.743Z,72.8573
2024-03-24T11:36:32.650Z,74.9401
2024-03-24T11:37:37.616Z,76.1257
2024-03-24T11:38:42.403Z,75.0454
2024-03-24T11:39:47.191Z,70.2373
2024-03-24T11:40:53.486Z,71.1772
2024-03-24T11:41:58.415Z,69.2256
2024-03-24T11:43:03.378Z,65.2659
2024-03-24T11:44:08.295Z,66.6728
2024-03-24T11:45:13.278Z,62.2995
2024-03-24T11:46:18.055Z,62.4979
2024-03-24T11:47:22.898Z,60.7492
2024-03-24T11:48:27.807Z,61.4939
2024-03-24T11:49:32.595Z,61.2436
2024-03-24T11:50:37.445Z,61.3672
2024-03-24T11:51:42.384Z,58.7610
2024-03-24T11:52:49.362Z,60.3464
2024-03-24T11:53:55.817Z,61.4618
2024-03-24T11:55:00.642Z,60.0305
2024-03-24T11:56:05.441Z,62.1714
2024-03-24T11:57:10.400Z,58.1430
2024-03-24T11:58:15.225Z,58.1765
2024-03-24T11:59:19.998Z,58.5183
2024-03-24T12:00:24.962Z,58.4360
2024-03-24T12:01:29.927Z,59.4522
2024-03-24T12:02:34.876Z,61.8784
2024-03-24T12:03:39.849Z,60.0763
2024-03-24T12:04:44.742Z,61.1429
2024-03-24T12:05:49.552Z,61.6602
2024-03-24T12:06:54.418Z,61.7655
2024-03-24T12:07:59.325Z,65.2476
2024-03-24T12:09:04.133Z,62.8275
2024-03-24T12:10:08.951Z,63.9033
2024-03-24T12:11:13.842Z,62.3148
2024-03-24T12:12:18.657Z,61.1048
2024-03-24T12:13:23.519Z,60.9781
2024-03-24T12:14:28.403Z,60.7355
2024-03-24T12:15:33.221Z,58.4222
2024-03-24T12:16:38.080Z,60.4044
2024-03-24T12:17:42.994Z,60.8301
2024-03-24T12:18:47.790Z,58.9532
2024-03-24T12:19:52.541Z,59.9054
2024-03-24T12:20:57.339Z,57.4517
2024-03-24T12:22:02.237Z,52.8069
2024-03-24T12:23:07.199Z,53.8735
2024-03-24T12:24:12.097Z,55.0851
2024-03-24T12:25:16.914Z,54.5327
2024-03-24T12:26:21.742Z,57.4350
2024-03-24T12:27:26.663Z,58.7884
2024-03-24T12:28:31.608Z,55.7855
2024-03-24T12:29:36.405Z,53.5851
2024-03-24T12:30:41.216Z,51.7205
2024-03-24T12:31:46.043Z,52.3522
2024-03-24T12:32:50.881Z,51.9646
2024-03-24T12:33:55.780Z,53.4203
2024-03-24T12:35:00.575Z,57.3236
2024-03-24T12:36:05.430Z,56.6690
2024-03-24T12:37:10.365Z,58.1125
2024-03-24T12:38:15.183Z,58.1537
2024-03-24T12:39:20.005Z,58.5199
2024-03-24T12:40:24.957Z,58.2452
2024-03-24T12:41:29.923Z,60.2502
2024-03-24T12:42:34.865Z,60.9140
2024-03-24T12:43:39.841Z,60.4105
2024-03-24T12:44:44.791Z,58.6007
2024-03-24T12:45:49.767Z,58.7930
2024-03-24T12:46:54.710Z,54.2443
2024-03-24T12:47:59.506Z,51.5251
2024-03-24T12:49:04.325Z,51.9814
2024-03-24T12:50:17.641Z,52.5307
2024-03-24T12:51:19.960Z,53.8399
2024-03-24T12:52:24.776Z,55.1858
2024-03-24T12:53:29.596Z,51.2871
2024-03-24T12:54:34.491Z,51.5663
2024-03-24T12:55:39.308Z,52.1019
2024-03-24T12:56:44.139Z,50.6218
2024-03-24T12:57:49.092Z,50.8736
2024-03-24T12:58:56.242Z,50.9422
2024-03-24T13:00:02.874Z,52.1294
2024-03-24T13:01:07.640Z,49.8573
2024-03-24T13:02:12.487Z,49.1203
2024-03-24T13:03:17.339Z,48.5176
2024-03-24T13:04:22.123Z,54.3404
2024-03-24T13:05:27.026Z,48.3330